Time;durP1;ratioP1;P1;durP2;ratioP2;P2;SDS_P1;SDS_P2;PMS_P1;PMS_P2;Temp;Humidity;BMP_temperature;BMP_pressure;BME280_temperature;BME280_humidity;BME280_pressure;Samples;Min_cycle;Max_cycle;Signal;HPM_P1;HPM_P2
2024/01/08 00:01:26;;;;;;;4.07;1.40;;;-1.10;99.90;;;;;;5032762;28;20021;-50
2024/01/08 00:03:52;;;;;;;3.93;1.60;;;-1.10;99.90;;;;;;5032576;28;20029;-54
2024/01/08 00:06:18;;;;;;;4.47;1.77;;;-1.10;99.90;;;;;;5032686;28;20482;-51
2024/01/08 00:08:44;;;;;;;3.83;2.03;;;-1.10;99.90;;;;;;5031216;28;20116;-51
2024/01/08 00:11:09;;;;;;;5.10;1.70;;;-1.20;99.90;;;;;;5032836;28;20044;-53
2024/01/08 00:13:35;;;;;;;4.47;2.00;;;-1.20;99.90;;;;;;5032448;28;20029;-53
2024/01/08 00:16:01;;;;;;;3.67;1.70;;;-1.20;99.90;;;;;;5032461;28;20033;-52
2024/01/08 00:18:29;;;;;;;4.87;1.73;;;-1.20;99.90;;;;;;5032165;28;20551;-52
2024/01/08 00:20:55;;;;;;;4.13;1.47;;;-1.20;99.90;;;;;;5032252;28;20202;-55
2024/01/08 00:23:21;;;;;;;4.53;2.10;;;-1.20;99.90;;;;;;5032338;28;20080;-55
2024/01/08 00:25:48;;;;;;;3.80;1.70;;;-1.20;99.90;;;;;;5032056;28;20026;-55
2024/01/08 00:28:13;;;;;;;4.77;1.93;;;-1.20;99.90;;;;;;5032305;28;20037;-60
2024/01/08 00:30:39;;;;;;;4.20;1.80;;;-1.30;99.90;;;;;;5032118;28;20104;-53
2024/01/08 00:33:05;;;;;;;3.77;1.60;;;-1.30;99.90;;;;;;5032021;28;20056;-55
2024/01/08 00:35:30;;;;;;;3.67;1.53;;;-1.30;99.90;;;;;;5032241;28;20036;-51
2024/01/08 00:37:56;;;;;;;4.57;2.23;;;-1.30;99.90;;;;;;5032001;28;20033;-53
2024/01/08 00:40:22;;;;;;;6.93;1.87;;;-1.30;99.90;;;;;;5031889;28;20026;-54
2024/01/08 00:42:47;;;;;;;6.63;1.80;;;-1.40;99.90;;;;;;5031971;28;20494;-54
2024/01/08 00:45:13;;;;;;;5.63;1.70;;;-1.40;99.90;;;;;;5032108;28;20025;-55
2024/01/08 00:47:40;;;;;;;4.27;1.90;;;-1.30;99.90;;;;;;5031833;28;20041;-55
2024/01/08 00:50:06;;;;;;;5.60;2.00;;;-1.30;99.90;;;;;;5031799;28;20041;-54
2024/01/08 00:52:32;;;;;;;4.23;1.60;;;-1.30;99.90;;;;;;5031901;28;20091;-55
2024/01/08 00:55:04;;;;;;;3.37;1.57;;;-1.40;99.90;;;;;;5031964;28;20475;-53
2024/01/08 00:57:30;;;;;;;3.07;1.53;;;-1.40;99.90;;;;;;5031829;28;20037;-56
2024/01/08 00:59:55;;;;;;;3.50;1.77;;;-1.40;99.90;;;;;;5031674;28;20441;-54
2024/01/08 01:02:21;;;;;;;3.93;1.23;;;-1.40;99.90;;;;;;5031688;28;20037;-51
2024/01/08 01:04:47;;;;;;;3.93;1.60;;;-1.40;99.90;;;;;;5031865;28;20037;-52
2024/01/08 01:07:12;;;;;;;4.23;1.70;;;-1.40;99.90;;;;;;5031858;28;20029;-55
2024/01/08 01:09:38;;;;;;;4.00;1.60;;;-1.40;99.90;;;;;;5031484;28;20038;-54
2024/01/08 01:12:04;;;;;;;4.37;1.70;;;-1.40;99.90;;;;;;5030490;28;20041;-55
2024/01/08 01:14:29;;;;;;;4.70;1.67;;;-1.40;99.90;;;;;;5031792;28;20026;-52
2024/01/08 01:16:55;;;;;;;4.23;1.77;;;-1.50;99.90;;;;;;5031583;28;20033;-54
2024/01/08 01:19:21;;;;;;;5.23;1.50;;;-1.50;99.90;;;;;;5031409;28;20517;-55
2024/01/08 01:21:46;;;;;;;3.53;1.23;;;-1.50;99.90;;;;;;5031908;28;20401;-54
2024/01/08 01:24:12;;;;;;;5.43;1.97;;;-1.40;99.90;;;;;;5031690;28;20104;-53
2024/01/08 01:26:37;;;;;;;3.77;1.90;;;-1.40;99.90;;;;;;5014011;28;20025;-57
2024/01/08 01:29:03;;;;;;;4.03;2.13;;;-1.40;99.90;;;;;;5031428;28;20085;-55
2024/01/08 01:31:30;;;;;;;3.83;1.83;;;-1.40;99.90;;;;;;5013813;28;20068;-50
2024/01/08 01:33:56;;;;;;;4.53;1.90;;;-1.50;99.90;;;;;;5031536;28;20045;-55
2024/01/08 01:36:22;;;;;;;3.50;2.00;;;-1.60;99.90;;;;;;5031497;28;20025;-56
2024/01/08 01:38:47;;;;;;;6.03;2.23;;;-1.70;99.90;;;;;;5033464;28;20025;-56
2024/01/08 01:41:13;;;;;;;6.13;1.83;;;-1.80;99.90;;;;;;5035429;28;20064;-53
2024/01/08 01:43:38;;;;;;;5.40;2.20;;;-1.80;99.90;;;;;;5035381;28;20060;-52
2024/01/08 01:46:15;;;;;;;6.53;2.03;;;-1.90;99.90;;;;;;5035138;28;20462;-53
2024/01/08 01:48:40;;;;;;;4.77;2.27;;;-1.90;99.90;;;;;;5035201;28;20034;-55
2024/01/08 01:51:06;;;;;;;5.07;2.10;;;-2.00;99.90;;;;;;5033770;28;20025;-54
2024/01/08 01:53:32;;;;;;;5.37;2.10;;;-2.00;99.90;;;;;;5035081;28;20083;-54
2024/01/08 01:55:58;;;;;;;5.30;2.30;;;-2.10;99.90;;;;;;5017243;28;20052;-53
2024/01/08 01:58:24;;;;;;;6.53;2.20;;;-2.10;99.90;;;;;;5034980;28;20033;-55
2024/01/08 02:00:50;;;;;;;5.63;2.30;;;-2.20;99.90;;;;;;5034850;28;20096;-54
2024/01/08 02:03:16;;;;;;;5.53;2.27;;;-2.20;99.90;;;;;;5035158;28;20029;-54
2024/01/08 02:05:42;;;;;;;6.60;2.23;;;-2.30;99.90;;;;;;5035331;28;20364;-55
2024/01/08 02:08:09;;;;;;;4.30;2.20;;;-2.30;99.90;;;;;;5035103;28;20436;-54
2024/01/08 02:10:39;;;;;;;4.60;2.00;;;-2.30;99.90;;;;;;5035000;28;20124;-55
2024/01/08 02:13:05;;;;;;;5.47;2.40;;;-2.30;99.90;;;;;;5034912;28;20040;-51
2024/01/08 02:15:31;;;;;;;5.47;2.43;;;-2.40;99.90;;;;;;5035063;28;20034;-52
2024/01/08 02:17:56;;;;;;;5.23;2.13;;;-2.40;99.90;;;;;;5034611;28;20069;-55
2024/01/08 02:20:22;;;;;;;3.67;1.80;;;-2.40;99.90;;;;;;5034750;28;20032;-55
2024/01/08 02:22:48;;;;;;;5.17;2.07;;;-2.40;99.90;;;;;;5034557;28;20080;-55
2024/01/08 02:25:14;;;;;;;4.53;2.10;;;-2.40;99.90;;;;;;5034590;28;20417;-52
2024/01/08 02:27:39;;;;;;;4.20;2.20;;;-2.40;99.90;;;;;;5034425;28;20116;-54
2024/01/08 02:30:06;;;;;;;7.83;2.20;;;-2.40;99.90;;;;;;5034205;28;20129;-55
2024/01/08 02:32:31;;;;;;;4.50;1.97;;;-2.30;99.90;;;;;;5034761;28;20120;-55
2024/01/08 02:34:57;;;;;;;6.90;2.30;;;-2.30;99.90;;;;;;5034407;28;20117;-55
2024/01/08 02:37:22;;;;;;;6.47;2.63;;;-2.30;99.90;;;;;;5034287;28;20040;-54
2024/01/08 02:39:49;;;;;;;5.17;1.70;;;-2.10;99.90;;;;;;5034103;28;20025;-55
2024/01/08 02:42:17;;;;;;;5.10;2.20;;;-2.10;99.90;;;;;;5016409;28;20555;-52
2024/01/08 02:44:43;;;;;;;5.60;2.53;;;-2.10;99.90;;;;;;5034243;28;20112;-52
2024/01/08 02:47:08;;;;;;;4.63;2.30;;;-2.00;99.90;;;;;;5034375;28;20109;-52
2024/01/08 02:49:34;;;;;;;4.67;2.03;;;-2.00;99.90;;;;;;5033729;28;20038;-56
2024/01/08 02:52:01;;;;;;;5.63;2.43;;;-2.00;99.90;;;;;;5032917;28;20054;-55
2024/01/08 02:54:26;;;;;;;4.67;2.20;;;-2.00;99.90;;;;;;5033974;28;20040;-53
2024/01/08 02:56:52;;;;;;;4.13;2.23;;;-2.00;99.90;;;;;;5033859;28;20068;-54
2024/01/08 02:59:17;;;;;;;7.13;2.63;;;-2.00;99.90;;;;;;5033670;28;20017;-53
2024/01/08 03:01:43;;;;;;;6.37;2.57;;;-2.00;99.90;;;;;;5033852;28;20502;-51
2024/01/08 03:04:08;;;;;;;6.97;2.37;;;-2.00;99.90;;;;;;5033831;28;20021;-53
2024/01/08 03:06:34;;;;;;;5.93;2.50;;;-2.00;99.90;;;;;;5033878;28;20033;-55
2024/01/08 03:09:00;;;;;;;6.20;2.60;;;-2.00;99.90;;;;;;5033530;28;20470;-54
2024/01/08 03:11:25;;;;;;;5.67;2.57;;;-2.00;99.90;;;;;;5033650;28;20037;-53
2024/01/08 03:13:51;;;;;;;6.00;2.50;;;-2.00;99.90;;;;;;5033678;28;20033;-55
2024/01/08 03:16:19;;;;;;;9.87;2.60;;;-2.00;99.90;;;;;;5033627;28;20030;-54
2024/01/08 03:18:48;;;;;;;7.00;2.77;;;-2.00;99.90;;;;;;5033561;28;20033;-52
2024/01/08 03:21:13;;;;;;;4.43;2.10;;;-2.00;99.90;;;;;;5015777;28;20033;-56
2024/01/08 03:23:39;;;;;;;5.33;2.33;;;-2.00;99.90;;;;;;5015739;28;20091;-55
2024/01/08 03:26:06;;;;;;;7.00;2.67;;;-2.00;99.90;;;;;;5033362;28;20124;-50
2024/01/08 03:28:32;;;;;;;9.33;2.63;;;-2.00;99.90;;;;;;5033507;28;20230;-55
2024/01/08 03:30:57;;;;;;;6.03;2.67;;;-1.90;99.90;;;;;;5033133;28;20029;-54
2024/01/08 03:33:23;;;;;;;6.30;2.90;;;-2.00;99.90;;;;;;5033243;28;20021;-56
2024/01/08 03:35:48;;;;;;;6.03;2.40;;;-1.90;99.90;;;;;;5033296;28;20026;-53
2024/01/08 03:38:15;;;;;;;6.30;2.93;;;-1.90;99.90;;;;;;5033079;28;20107;-51
2024/01/08 03:40:41;;;;;;;10.10;3.27;;;-1.90;99.90;;;;;;5032947;28;20036;-54
2024/01/08 03:43:06;;;;;;;6.90;3.00;;;-1.90;99.90;;;;;;5033015;28;20394;-52
2024/01/08 03:45:32;;;;;;;7.23;2.47;;;-1.90;99.90;;;;;;5033141;28;20018;-51
2024/01/08 03:47:57;;;;;;;5.80;2.57;;;-1.80;99.90;;;;;;5032941;28;20375;-51
2024/01/08 03:50:23;;;;;;;7.53;2.57;;;-1.80;99.90;;;;;;5032813;28;20037;-50
2024/01/08 03:52:49;;;;;;;5.40;2.50;;;-1.80;99.90;;;;;;5032877;28;20044;-50
2024/01/08 03:55:15;;;;;;;7.20;2.97;;;-1.90;99.90;;;;;;5032834;28;20084;-51
2024/01/08 03:57:40;;;;;;;5.90;2.90;;;-1.90;99.90;;;;;;5032639;28;20033;-56
2024/01/08 04:00:06;;;;;;;6.00;2.67;;;-1.90;99.90;;;;;;5032357;28;20079;-56
2024/01/08 04:02:40;;;;;;;8.67;3.10;;;-1.90;99.90;;;;;;5032495;28;20037;-51
2024/01/08 04:05:09;;;;;;;6.63;2.80;;;-1.90;99.90;;;;;;5032732;28;20037;-55
2024/01/08 04:07:35;;;;;;;8.25;3.20;;;-1.90;99.90;;;;;;5032607;28;20034;-54
2024/01/08 04:10:00;;;;;;;7.60;2.90;;;-1.90;99.90;;;;;;5032393;28;20033;-53
2024/01/08 04:12:26;;;;;;;7.33;2.97;;;-1.80;99.90;;;;;;5032471;28;20055;-56
2024/01/08 04:14:51;;;;;;;8.17;3.30;;;-1.80;99.90;;;;;;5032511;28;20026;-54
2024/01/08 04:17:17;;;;;;;7.97;3.23;;;-1.80;99.90;;;;;;5032447;28;20033;-56
2024/01/08 04:19:42;;;;;;;6.63;3.07;;;-1.90;99.90;;;;;;5014492;28;20532;-54
2024/01/08 04:22:08;;;;;;;6.93;3.17;;;-1.90;99.90;;;;;;5014714;28;20033;-50
2024/01/08 04:24:33;;;;;;;8.33;3.17;;;-1.90;99.90;;;;;;5032296;28;20029;-50
2024/01/08 04:26:59;;;;;;;8.57;2.63;;;-1.90;99.90;;;;;;5032301;28;20025;-51
2024/01/08 04:29:24;;;;;;;7.57;3.40;;;-2.00;99.90;;;;;;5032135;28;20030;-54
2024/01/08 04:31:50;;;;;;;8.20;3.00;;;-1.90;99.90;;;;;;5032189;28;20064;-53
2024/01/08 04:34:16;;;;;;;7.00;3.30;;;-1.90;99.90;;;;;;5032216;28;20398;-53
2024/01/08 04:36:45;;;;;;;6.90;3.10;;;-1.90;99.90;;;;;;5032045;28;20043;-55
2024/01/08 04:39:11;;;;;;;7.75;2.70;;;-1.90;99.90;;;;;;5031940;28;20132;-55
2024/01/08 04:41:36;;;;;;;7.73;2.67;;;-1.80;99.90;;;;;;5032033;28;20106;-51
2024/01/08 04:44:02;;;;;;;9.23;3.50;;;-1.80;99.90;;;;;;5032050;28;20474;-56
2024/01/08 04:46:27;;;;;;;8.73;3.67;;;-1.80;99.90;;;;;;5032096;28;20117;-54
2024/01/08 04:48:53;;;;;;;7.33;3.03;;;-1.80;99.90;;;;;;5031868;28;20033;-55
2024/01/08 04:51:22;;;;;;;9.33;3.00;;;-1.80;99.90;;;;;;5031919;28;20032;-55
2024/01/08 04:53:49;;;;;;;7.40;2.78;;;-1.90;99.90;;;;;;5031979;28;20044;-56
2024/01/08 04:56:25;;;;;;;5.07;2.63;;;-1.80;99.90;;;;;;5031842;28;20036;-53
2024/01/08 04:58:54;;;;;;;10.03;3.33;;;-1.80;99.90;;;;;;5031706;28;20033;-56
2024/01/08 05:01:19;;;;;;;9.15;3.45;;;-1.70;99.90;;;;;;5031942;28;20424;-55
2024/01/08 05:03:45;;;;;;;7.27;3.40;;;-1.70;99.90;;;;;;5031756;28;20030;-56
2024/01/08 05:06:11;;;;;;;8.40;3.17;;;-1.80;99.90;;;;;;5032391;28;20485;-55
2024/01/08 05:08:41;;;;;;;7.37;3.00;;;-1.80;99.90;;;;;;5031677;28;20159;-55
2024/01/08 05:11:07;;;;;;;8.63;3.55;;;-1.80;99.90;;;;;;5031640;28;20029;-52
2024/01/08 05:13:33;;;;;;;10.40;3.43;;;-1.80;99.90;;;;;;5033712;28;20048;-56
2024/01/08 05:15:58;;;;;;;7.60;3.53;;;-1.70;99.90;;;;;;5035946;28;20103;-54
2024/01/08 05:18:24;;;;;;;6.63;2.90;;;-1.70;99.90;;;;;;5035654;28;20379;-56
2024/01/08 05:20:50;;;;;;;8.03;3.40;;;-1.70;99.90;;;;;;5035611;28;20107;-54
2024/01/08 05:23:15;;;;;;;6.80;3.33;;;-1.70;99.90;;;;;;5035591;28;20032;-53
2024/01/08 05:25:41;;;;;;;9.40;3.13;;;-1.70;99.90;;;;;;5035819;28;20103;-53
2024/01/08 05:28:06;;;;;;;6.63;3.43;;;-1.80;99.90;;;;;;5035656;28;20056;-56
2024/01/08 05:30:32;;;;;;;8.33;3.20;;;-1.70;99.90;;;;;;5035400;28;20120;-54
2024/01/08 05:32:58;;;;;;;7.73;3.50;;;-1.70;99.90;;;;;;5035393;28;20057;-53
2024/01/08 05:35:23;;;;;;;8.77;3.27;;;-1.70;99.90;;;;;;5035527;28;20021;-53
2024/01/08 05:37:49;;;;;;;9.67;3.70;;;-1.70;99.90;;;;;;5035571;28;20449;-55
2024/01/08 05:40:15;;;;;;;8.53;3.80;;;-1.70;99.90;;;;;;5017449;28;20034;-54
2024/01/08 05:42:41;;;;;;;9.87;3.43;;;-1.60;99.90;;;;;;5017545;28;20056;-56
2024/01/08 05:45:10;;;;;;;10.37;3.43;;;-1.60;99.90;;;;;;5017755;28;20091;-49
2024/01/08 05:47:36;;;;;;;6.22;3.20;;;-1.60;99.90;;;;;;5035156;28;20033;-56
2024/01/08 05:50:05;;;;;;;10.70;4.00;;;-1.60;99.90;;;;;;5035059;28;20029;-56
2024/01/08 05:52:34;;;;;;;9.15;3.53;;;-1.60;99.90;;;;;;5035134;28;20534;-52
2024/01/08 05:54:59;;;;;;;9.63;3.50;;;-1.60;99.90;;;;;;5035095;28;20036;-53
2024/01/08 05:57:25;;;;;;;8.03;3.60;;;-1.60;99.90;;;;;;5035011;28;20037;-53
2024/01/08 05:59:51;;;;;;;7.60;3.57;;;-1.60;99.90;;;;;;5034882;28;20037;-55
2024/01/08 06:02:16;;;;;;;7.50;3.83;;;-1.60;99.90;;;;;;5034926;28;20049;-56
2024/01/08 06:04:42;;;;;;;8.17;3.57;;;-1.60;99.90;;;;;;5035045;28;20025;-52
2024/01/08 06:07:07;;;;;;;6.90;2.93;;;-1.60;99.90;;;;;;5034975;28;20029;-49
2024/01/08 06:09:33;;;;;;;13.10;3.60;;;-1.60;99.90;;;;;;5034604;28;20037;-50
2024/01/08 06:11:59;;;;;;;12.27;3.50;;;-1.60;99.90;;;;;;5034786;28;20056;-55
2024/01/08 06:14:27;;;;;;;7.80;3.20;;;-1.50;99.90;;;;;;5034774;28;20052;-51
2024/01/08 06:16:53;;;;;;;7.60;3.47;;;-1.50;99.90;;;;;;5017005;28;20474;-54
2024/01/08 06:19:18;;;;;;;9.97;3.47;;;-1.60;99.90;;;;;;5034378;28;20032;-51
2024/01/08 06:21:44;;;;;;;9.27;3.87;;;-1.60;99.90;;;;;;5034550;28;20556;-56
2024/01/08 06:24:10;;;;;;;10.60;3.67;;;-1.60;99.90;;;;;;5033986;28;20466;-53
2024/01/08 06:26:35;;;;;;;9.33;3.27;;;-1.60;99.90;;;;;;5034683;28;20025;-55
2024/01/08 06:29:01;;;;;;;8.00;3.57;;;-1.60;99.90;;;;;;5034329;28;20124;-55
2024/01/08 06:31:27;;;;;;;8.43;3.07;;;-1.50;99.90;;;;;;5034567;28;20288;-50
2024/01/08 06:33:53;;;;;;;10.23;3.50;;;-1.50;99.90;;;;;;5034412;28;20083;-51
2024/01/08 06:36:18;;;;;;;10.17;3.33;;;-1.50;99.90;;;;;;5034414;28;20399;-51
2024/01/08 06:38:45;;;;;;;8.10;3.50;;;-1.40;99.90;;;;;;5034191;28;20036;-56
2024/01/08 06:41:11;;;;;;;7.20;3.63;;;-1.50;99.90;;;;;;5034167;28;20159;-53
2024/01/08 06:43:36;;;;;;;7.33;2.43;;;-1.50;99.90;;;;;;5034317;28;20064;-52
2024/01/08 06:46:02;;;;;;;7.27;3.17;;;-1.50;99.90;;;;;;5034204;28;20021;-54
2024/01/08 06:48:28;;;;;;;10.20;3.63;;;-1.40;99.90;;;;;;5034167;28;20044;-53
2024/01/08 06:50:53;;;;;;;5.63;3.00;;;-1.40;99.90;;;;;;5033993;28;20029;-52
2024/01/08 06:53:19;;;;;;;10.93;3.70;;;-1.40;99.90;;;;;;5033900;28;20034;-54
2024/01/08 06:55:44;;;;;;;6.93;3.13;;;-1.40;99.90;;;;;;5034095;28;20484;-55
2024/01/08 06:58:10;;;;;;;6.70;3.30;;;-1.40;99.90;;;;;;5033886;28;20121;-55
2024/01/08 07:00:36;;;;;;;9.40;3.30;;;-1.40;99.90;;;;;;5033660;28;20033;-51
2024/01/08 07:03:01;;;;;;;6.80;2.90;;;-1.40;99.90;;;;;;5033817;28;20030;-54
2024/01/08 07:05:27;;;;;;;10.63;3.63;;;-1.40;99.90;;;;;;5033834;28;20394;-54
2024/01/08 07:07:53;;;;;;;6.87;3.03;;;-1.40;99.90;;;;;;5033695;28;20029;-54
2024/01/08 07:10:19;;;;;;;5.83;2.70;;;-1.30;99.90;;;;;;5033952;28;20043;-53
2024/01/08 07:12:45;;;;;;;7.00;3.40;;;-1.40;99.90;;;;;;5033565;28;20478;-51
2024/01/08 07:15:45;;;;;;;8.17;2.67;;;-1.30;99.90;;;;;;5033617;28;20041;-51
2024/01/08 07:18:11;;;;;;;6.90;2.70;;;-1.30;99.90;;;;;;5033409;28;20033;-56
2024/01/08 07:20:37;;;;;;;6.93;3.00;;;-1.30;99.90;;;;;;5033315;28;20034;-54
2024/01/08 07:23:05;;;;;;;9.93;2.73;;;-1.30;99.90;;;;;;5033465;28;20123;-50
2024/01/08 07:25:30;;;;;;;4.87;2.60;;;-1.40;99.90;;;;;;5033416;28;20030;-53
2024/01/08 07:27:56;;;;;;;8.27;3.13;;;-1.40;99.90;;;;;;5033392;28;20025;-53
2024/01/08 07:30:22;;;;;;;8.33;3.17;;;-1.40;99.90;;;;;;5033244;28;20394;-53
2024/01/08 07:32:48;;;;;;;7.27;2.83;;;-1.40;99.90;;;;;;5033203;28;20087;-53
2024/01/08 07:35:14;;;;;;;7.13;3.30;;;-1.40;99.90;;;;;;5032562;28;20072;-50
2024/01/08 07:37:39;;;;;;;6.17;3.10;;;-1.30;99.90;;;;;;5032933;28;20029;-53
2024/01/08 07:40:06;;;;;;;6.57;3.00;;;-1.30;99.90;;;;;;5032903;28;20087;-56
2024/01/08 07:42:32;;;;;;;7.63;3.13;;;-1.30;99.90;;;;;;5033070;28;20029;-52
2024/01/08 07:44:58;;;;;;;8.83;3.57;;;-1.30;99.90;;;;;;5033145;28;20522;-52
2024/01/08 07:47:23;;;;;;;6.83;2.97;;;-1.30;99.90;;;;;;5033048;28;20033;-52
2024/01/08 07:49:49;;;;;;;9.00;3.50;;;-1.30;99.90;;;;;;5032820;28;20092;-52
2024/01/08 07:52:15;;;;;;;11.13;3.40;;;-1.30;99.90;;;;;;5032879;28;20033;-48
2024/01/08 07:54:40;;;;;;;10.43;3.60;;;-1.40;99.90;;;;;;5033320;28;20036;-52
2024/01/08 07:57:06;;;;;;;6.80;3.03;;;-1.40;99.90;;;;;;5015172;28;20037;-51
2024/01/08 07:59:32;;;;;;;8.53;3.30;;;-1.30;99.90;;;;;;5031292;28;20467;-53
2024/01/08 08:01:57;;;;;;;9.10;3.40;;;-1.30;99.90;;;;;;5032720;28;20108;-52
2024/01/08 08:04:23;;;;;;;7.83;2.93;;;-1.30;99.90;;;;;;5032761;28;20032;-51
2024/01/08 08:06:48;;;;;;;11.03;3.70;;;-1.40;99.90;;;;;;5032715;28;20453;-54
2024/01/08 08:09:14;;;;;;;7.83;3.10;;;-1.40;99.90;;;;;;5032319;28;20037;-49
2024/01/08 08:11:39;;;;;;;6.07;3.00;;;-1.40;99.90;;;;;;5031281;28;20048;-53
2024/01/08 08:14:05;;;;;;;7.70;3.00;;;-1.40;99.90;;;;;;5032528;28;20091;-56
2024/01/08 08:16:31;;;;;;;7.97;3.57;;;-1.40;99.90;;;;;;5032398;28;20442;-53
2024/01/08 08:18:56;;;;;;;9.03;3.60;;;-1.40;99.90;;;;;;5014530;28;20512;-51
2024/01/08 08:21:23;;;;;;;7.47;2.90;;;-1.40;99.90;;;;;;5014648;28;20029;-53
2024/01/08 08:23:48;;;;;;;11.87;3.50;;;-1.40;99.90;;;;;;5032196;28;20121;-52
2024/01/08 08:26:14;;;;;;;9.00;3.07;;;-1.30;99.90;;;;;;5032328;28;20108;-55
2024/01/08 08:28:40;;;;;;;7.53;2.97;;;-1.30;99.90;;;;;;5032210;28;20026;-51
2024/01/08 08:31:05;;;;;;;7.37;2.90;;;-1.40;99.90;;;;;;5032084;28;20025;-50
2024/01/08 08:33:31;;;;;;;7.50;3.87;;;-1.40;99.90;;;;;;5032131;28;20497;-54
2024/01/08 08:35:57;;;;;;;6.07;2.60;;;-1.40;99.90;;;;;;5030950;28;20032;-50
2024/01/08 08:38:22;;;;;;;8.50;3.00;;;-1.40;99.90;;;;;;5014389;28;20124;-51
2024/01/08 08:40:48;;;;;;;6.10;3.10;;;-1.40;99.90;;;;;;5031896;28;20175;-50
2024/01/08 08:43:14;;;;;;;7.77;3.57;;;-1.50;99.90;;;;;;5031933;28;20029;-52
2024/01/08 08:45:39;;;;;;;6.10;3.10;;;-1.50;99.90;;;;;;5032025;28;20382;-53
2024/01/08 08:48:05;;;;;;;6.73;3.20;;;-1.50;99.90;;;;;;5031655;28;20084;-54
2024/01/08 08:50:31;;;;;;;7.53;2.87;;;-1.40;99.90;;;;;;5031695;28;20040;-51
2024/01/08 08:52:57;;;;;;;7.13;3.23;;;-1.40;99.90;;;;;;5031839;28;20037;-52
2024/01/08 08:55:22;;;;;;;8.17;3.47;;;-1.40;99.90;;;;;;5031941;28;20032;-51
2024/01/08 08:57:48;;;;;;;7.33;2.90;;;-1.40;99.90;;;;;;5031831;28;20029;-55
2024/01/08 09:00:14;;;;;;;6.63;2.80;;;-1.40;99.90;;;;;;5031699;28;20033;-53
2024/01/08 09:02:39;;;;;;;6.60;2.83;;;-1.40;99.90;;;;;;5031724;28;20037;-53
2024/01/08 09:05:07;;;;;;;7.50;3.03;;;-1.40;99.90;;;;;;5031698;28;20029;-53
2024/01/08 09:07:33;;;;;;;8.33;3.43;;;-1.40;99.90;;;;;;5031712;28;20033;-52
2024/01/08 09:09:59;;;;;;;8.53;3.53;;;-1.40;99.90;;;;;;5031561;28;20101;-54
2024/01/08 09:12:26;;;;;;;7.03;2.90;;;-1.40;99.90;;;;;;5031596;28;20497;-56
2024/01/08 09:14:52;;;;;;;8.70;2.70;;;-1.30;99.90;;;;;;5030653;28;20454;-51
2024/01/08 09:17:18;;;;;;;7.67;3.27;;;-1.30;99.90;;;;;;5031409;28;20128;-51
2024/01/08 09:19:43;;;;;;;8.87;3.10;;;-1.30;99.90;;;;;;5031018;28;20037;-51
2024/01/08 09:22:09;;;;;;;9.53;3.33;;;-1.30;99.90;;;;;;5031228;28;20089;-53
2024/01/08 09:24:35;;;;;;;7.23;2.97;;;-1.30;99.90;;;;;;5031304;28;20044;-54
2024/01/08 09:27:01;;;;;;;6.47;2.67;;;-1.30;99.90;;;;;;5031365;28;20034;-54
2024/01/08 09:29:26;;;;;;;7.07;3.07;;;-1.20;99.90;;;;;;5031121;28;20037;-54
2024/01/08 09:31:53;;;;;;;7.63;3.10;;;-1.20;99.90;;;;;;5031374;28;20041;-54
2024/01/08 09:34:18;;;;;;;9.27;2.93;;;-1.20;99.90;;;;;;5031265;28;20033;-52
2024/01/08 09:36:44;;;;;;;7.03;3.03;;;-1.10;99.90;;;;;;5031189;28;20040;-55
2024/01/08 09:39:11;;;;;;;5.40;2.07;;;-1.00;99.90;;;;;;5030983;28;20033;-52
2024/01/08 09:41:37;;;;;;;3.80;1.87;;;-1.00;99.90;;;;;;5031172;28;20041;-55
2024/01/08 09:44:04;;;;;;;5.00;2.00;;;-1.10;99.90;;;;;;5031397;28;20433;-54
2024/01/08 09:46:43;;;;;;;5.20;1.97;;;-1.00;99.90;;;;;;5031163;28;20021;-54
2024/01/08 09:49:10;;;;;;;5.30;1.57;;;-0.90;99.90;;;;;;5030940;28;20041;-53
2024/01/08 09:51:38;;;;;;;3.70;1.80;;;-0.90;99.90;;;;;;5031133;28;20056;-48
2024/01/08 09:54:04;;;;;;;5.10;1.60;;;-0.80;99.90;;;;;;5031126;28;20033;-51
2024/01/08 09:56:30;;;;;;;7.33;2.40;;;-0.70;99.90;;;;;;5031047;28;20045;-51
2024/01/08 09:58:56;;;;;;;6.17;2.20;;;-0.70;99.90;;;;;;5031753;28;20064;-50
2024/01/08 10:01:22;;;;;;;3.67;1.93;;;-0.60;99.90;;;;;;5034823;28;20481;-53
2024/01/08 10:03:48;;;;;;;3.40;1.93;;;-0.40;99.90;;;;;;5034643;28;20072;-52
2024/01/08 10:06:13;;;;;;;4.90;1.90;;;-0.30;99.90;;;;;;5034941;28;20049;-55
2024/01/08 10:08:39;;;;;;;6.53;2.00;;;0.20;99.90;;;;;;5034424;28;20032;-51
2024/01/08 10:11:05;;;;;;;4.10;2.00;;;0.70;99.90;;;;;;5034485;28;20026;-55
2024/01/08 10:13:31;;;;;;;4.50;1.70;;;1.10;99.90;;;;;;5034523;28;20029;-55
2024/01/08 10:15:56;;;;;;;7.07;2.13;;;1.10;99.90;;;;;;5034617;28;20029;-54
2024/01/08 10:18:25;;;;;;;2.97;1.23;;;1.30;98.50;;;;;;5034526;28;20041;-52
2024/01/08 10:21:13;;;;;;;4.00;1.60;;;1.80;97.30;;;;;;5034347;28;20036;-52
2024/01/08 10:23:39;;;;;;;4.47;1.77;;;2.90;95.40;;;;;;5034340;28;20034;-53
2024/01/08 10:26:05;;;;;;;3.23;1.67;;;3.50;92.20;;;;;;5034439;28;20037;-53
2024/01/08 10:28:37;;;;;;;4.77;1.80;;;4.20;86.90;;;;;;5034343;28;20038;-55
2024/01/08 10:31:08;;;;;;;5.37;1.60;;;4.30;87.10;;;;;;5034139;28;20021;-55
2024/01/08 10:33:34;;;;;;;3.33;1.57;;;4.90;86.00;;;;;;5034064;28;20041;-54
2024/01/08 10:36:04;;;;;;;4.23;1.87;;;5.60;79.00;;;;;;5034238;28;20025;-53
2024/01/08 10:38:33;;;;;;;3.40;1.73;;;5.70;77.80;;;;;;5034165;28;20033;-55
2024/01/08 10:41:03;;;;;;;2.50;1.42;;;6.00;78.70;;;;;;5034028;28;20133;-52
2024/01/08 10:43:29;;;;;;;4.17;1.90;;;6.50;79.80;;;;;;5034037;28;20461;-54
2024/01/08 10:46:00;;;;;;;4.10;2.00;;;7.30;76.50;;;;;;5034006;28;20029;-50
2024/01/08 10:48:40;;;;;;;5.40;2.17;;;7.80;75.80;;;;;;5033858;28;20037;-52
2024/01/08 10:51:11;;;;;;;4.60;1.77;;;7.10;75.60;;;;;;5033851;28;20029;-55
2024/01/08 10:53:44;;;;;;;5.13;1.80;;;7.20;76.20;;;;;;5033961;28;20033;-54
2024/01/08 10:56:14;;;;;;;4.80;2.13;;;6.90;76.20;;;;;;5033900;28;20037;-54
2024/01/08 10:58:55;;;;;;;5.07;2.30;;;7.00;74.80;;;;;;5033636;28;20049;-53
2024/01/08 11:01:21;;;;;;;4.73;2.40;;;7.20;75.00;;;;;;5033885;28;20068;-54
2024/01/08 11:03:47;;;;;;;4.57;1.90;;;6.90;73.60;;;;;;5015958;28;20033;-55
2024/01/08 11:06:13;;;;;;;5.87;2.17;;;6.80;73.20;;;;;;5033563;28;20029;-53
2024/01/08 11:08:42;;;;;;;5.40;2.07;;;6.50;73.10;;;;;;5033452;28;20037;-54
2024/01/08 11:11:09;;;;;;;6.30;1.70;;;6.00;73.20;;;;;;5033319;28;20080;-55
2024/01/08 11:13:36;;;;;;;5.37;2.37;;;5.80;73.50;;;;;;5033407;28;20467;-52
2024/01/08 11:16:06;;;;;;;3.67;1.53;;;5.20;73.70;;;;;;5033512;28;20376;-55
2024/01/08 11:18:32;;;;;;;3.67;1.77;;;5.10;74.10;;;;;;5033206;28;20048;-53
2024/01/08 11:20:59;;;;;;;5.77;1.83;;;4.80;74.50;;;;;;5033040;28;20029;-55
2024/01/08 11:23:31;;;;;;;8.47;2.10;;;4.50;74.70;;;;;;5033264;28;20063;-52
2024/01/08 11:25:56;;;;;;;4.57;1.70;;;3.90;75.70;;;;;;5033469;28;20029;-52
2024/01/08 11:28:22;;;;;;;4.33;1.80;;;3.40;77.10;;;;;;5033183;28;20394;-51
2024/01/08 11:31:05;;;;;;;3.50;1.50;;;3.20;77.80;;;;;;5033118;28;20394;-54
2024/01/08 11:33:45;;;;;;;2.97;1.50;;;3.30;78.10;;;;;;5033070;28;20554;-53
2024/01/08 11:36:17;;;;;;;6.07;2.30;;;3.50;76.60;;;;;;5033188;28;20471;-54
2024/01/08 11:39:07;;;;;;;5.13;1.80;;;3.60;76.80;;;;;;5032916;28;20171;-54
2024/01/08 11:41:32;;;;;;;3.37;1.90;;;3.90;76.00;;;;;;5033011;28;20034;-52
2024/01/08 11:43:59;;;;;;;3.40;1.67;;;3.80;75.90;;;;;;5032816;28;20025;-55
2024/01/08 11:46:25;;;;;;;4.27;1.83;;;3.50;75.30;;;;;;5032778;28;20394;-53
2024/01/08 11:48:51;;;;;;;4.70;1.67;;;2.70;76.00;;;;;;5032571;28;20048;-53
2024/01/08 11:51:17;;;;;;;5.00;1.80;;;2.20;78.30;;;;;;5032826;28;20435;-52
2024/01/08 11:53:47;;;;;;;4.40;1.90;;;1.80;80.30;;;;;;5032676;28;20033;-49
2024/01/08 11:56:12;;;;;;;5.13;1.90;;;1.50;80.30;;;;;;5032694;28;20092;-53
2024/01/08 11:58:38;;;;;;;3.73;1.87;;;1.70;78.60;;;;;;5032432;28;20030;-53
2024/01/08 12:01:17;;;;;;;5.00;1.90;;;1.90;78.90;;;;;;5032361;28;20116;-53
2024/01/08 12:03:43;;;;;;;4.43;1.73;;;2.30;79.00;;;;;;5032592;28;20037;-54
2024/01/08 12:06:09;;;;;;;5.67;1.90;;;2.50;76.50;;;;;;5032561;28;20378;-54
2024/01/08 12:08:34;;;;;;;4.80;1.80;;;2.70;76.50;;;;;;5032944;28;20429;-50
2024/01/08 12:11:01;;;;;;;3.83;1.57;;;2.80;77.00;;;;;;5032256;28;20037;-53
2024/01/08 12:13:27;;;;;;;3.70;1.70;;;2.60;77.90;;;;;;5032295;28;20083;-53
2024/01/08 12:15:52;;;;;;;4.87;1.73;;;2.10;78.60;;;;;;5032299;28;20026;-52
2024/01/08 12:18:18;;;;;;;3.87;1.73;;;1.70;80.30;;;;;;5032081;28;20398;-54
2024/01/08 12:20:44;;;;;;;5.60;2.20;;;1.30;82.50;;;;;;5032151;28;20025;-54
2024/01/08 12:23:10;;;;;;;5.97;2.43;;;1.00;83.00;;;;;;5031703;28;20037;-54
2024/01/08 12:25:35;;;;;;;2.93;1.67;;;1.20;84.40;;;;;;5032153;28;20022;-53
2024/01/08 12:28:01;;;;;;;5.73;1.70;;;1.40;83.50;;;;;;5032332;28;20397;-53
2024/01/08 12:30:27;;;;;;;6.93;1.60;;;1.60;82.60;;;;;;5031860;28;20029;-53
2024/01/08 12:32:54;;;;;;;4.50;1.60;;;1.90;81.20;;;;;;5031981;28;20029;-54
2024/01/08 12:35:19;;;;;;;4.10;1.80;;;1.90;80.50;;;;;;5032080;28;20446;-54
2024/01/08 12:37:45;;;;;;;3.80;1.73;;;2.20;81.40;;;;;;5031985;28;20025;-52
2024/01/08 12:40:11;;;;;;;3.20;1.60;;;2.50;78.70;;;;;;5031749;28;20025;-51
2024/01/08 12:42:37;;;;;;;5.73;1.80;;;2.80;78.10;;;;;;5031919;28;20025;-53
2024/01/08 12:45:05;;;;;;;4.30;2.00;;;3.40;75.70;;;;;;5032104;28;20031;-52